Time;durP1;ratioP1;P1;durP2;ratioP2;P2;SDS_P1;SDS_P2;PMS_P1;PMS_P2;Temp;Humidity;BMP_temperature;BMP_pressure;BME280_temperature;BME280_humidity;BME280_pressure;Samples;Min_cycle;Max_cycle;Signal;HPM_P1;HPM_P2
2022/07/26 04:23:56;;;;;;;21.02;17.35;;;;;;;23.91;54.93;100772.34;5116002;27;20425;-86
2022/07/26 04:26:22;;;;;;;25.13;18.45;;;;;;;23.82;56.57;100767.16;5050853;28;20417;-88
2022/07/26 04:28:47;;;;;;;24.05;17.90;;;;;;;23.86;56.05;100756.13;5077710;28;20417;-88
2022/07/26 04:31:13;;;;;;;20.90;17.58;;;;;;;24.20;55.39;100769.31;5078847;28;20059;-88
2022/07/26 04:33:38;;;;;;;21.13;17.60;;;;;;;24.77;53.71;100772.13;5082189;28;20405;-84
2022/07/26 04:36:04;;;;;;;21.92;17.90;;;;;;;24.69;53.64;100774.78;5086395;28;20044;-93
2022/07/26 04:38:29;;;;;;;20.77;17.45;;;;;;;24.76;53.35;100774.94;5066599;28;20387;-84
2022/07/26 04:40:56;;;;;;;22.50;16.40;;;;;;;25.12;52.26;100775.50;5048903;28;20025;-88
2022/07/26 04:43:22;;;;;;;20.80;16.35;;;;;;;25.28;51.23;100756.97;5066126;28;20039;-88
2022/07/26 04:45:48;;;;;;;22.17;17.25;;;;;;;25.34;48.72;100769.50;5082835;28;20025;-90
2022/07/26 04:48:13;;;;;;;20.13;16.92;;;;;;;25.06;49.42;100770.84;5049011;28;20085;-87
2022/07/26 04:50:39;;;;;;;22.52;17.48;;;;;;;25.01;50.44;100778.44;5066682;28;20028;-90
2022/07/26 04:53:04;;;;;;;29.02;18.70;;;;;;;24.49;50.00;100771.59;5099404;28;20456;-87
2022/07/26 04:55:30;;;;;;;25.00;17.98;;;;;;;23.90;51.29;100751.38;5060767;28;20467;-88
2022/07/26 04:57:55;;;;;;;25.55;17.15;;;;;;;23.74;51.15;100768.78;5076705;28;20144;-90
2022/07/26 05:00:23;;;;;;;21.15;16.38;;;;;;;23.62;51.33;100759.47;5048747;28;20029;-88
2022/07/26 05:02:50;;;;;;;23.70;16.33;;;;;;;23.54;51.30;100755.91;5033390;28;20041;-84
2022/07/26 05:05:16;;;;;;;20.75;15.63;;;;;;;23.62;50.18;100751.56;5049684;28;20108;-85
2022/07/26 05:07:46;;;;;;;17.80;15.50;;;;;;;23.68;49.81;100758.00;5067541;28;20509;-90
2022/07/26 05:10:12;;;;;;;25.45;18.27;;;;;;;23.52;49.61;100728.84;5038483;28;20520;-86
2022/07/26 05:12:37;;;;;;;23.88;16.67;;;;;;;23.69;49.89;100764.94;5119759;28;20035;-86
2022/07/26 05:15:04;;;;;;;22.13;16.17;;;;;;;23.74;49.82;100766.13;5043517;28;20033;-88
2022/07/26 05:17:29;;;;;;;20.90;15.77;;;;;;;23.81;49.35;100771.63;5028878;28;20100;-88
2022/07/26 05:19:55;;;;;;;22.67;15.32;;;;;;;23.90;49.66;100777.78;5080810;28;20029;-93
2022/07/26 05:22:20;;;;;;;21.25;15.88;;;;;;;23.90;49.62;100773.31;5048659;28;20063;-94
2022/07/26 05:24:46;;;;;;;23.67;15.57;;;;;;;24.08;49.00;100769.75;5048937;28;20048;-83
2022/07/26 05:27:11;;;;;;;19.13;14.70;;;;;;;23.95;49.07;100744.59;5065197;28;20040;-86
2022/07/26 05:29:36;;;;;;;17.25;14.85;;;;;;;24.14;49.45;100769.13;5028472;28;20040;-87
2022/07/26 05:32:02;;;;;;;19.60;15.27;;;;;;;23.97;50.25;100758.47;5047979;28;20029;-88
2022/07/26 05:34:28;;;;;;;23.42;15.65;;;;;;;23.80;51.48;100755.94;5038812;28;20501;-86
2022/07/26 05:36:53;;;;;;;26.35;16.48;;;;;;;23.80;51.51;100751.50;5043494;28;20106;-84
2022/07/26 05:39:19;;;;;;;20.80;16.55;;;;;;;23.77;51.57;100761.50;5052806;28;20100;-90
2022/07/26 05:41:44;;;;;;;22.48;16.60;;;;;;;23.60;52.06;100758.81;5052336;28;20060;-88
2022/07/26 05:44:10;;;;;;;22.55;16.20;;;;;;;23.62;52.79;100759.47;5035692;28;20035;-92
2022/07/26 05:46:38;;;;;;;22.05;16.88;;;;;;;23.70;51.96;100750.78;5034158;28;20088;-84
2022/07/26 05:49:04;;;;;;;26.75;16.65;;;;;;;23.92;51.89;100762.59;5035509;28;20025;-91
2022/07/26 05:51:30;;;;;;;25.75;17.25;;;;;;;24.16;51.50;100762.69;5070072;28;20032;-93
2022/07/26 05:53:56;;;;;;;30.67;17.85;;;;;;;24.36;51.00;100759.81;5086684;22;20053;-86
2022/07/26 05:56:21;;;;;;;22.25;17.15;;;;;;;24.28;50.26;100764.03;5036497;28;20032;-89
2022/07/26 05:58:47;;;;;;;21.60;16.42;;;;;;;24.31;49.86;100768.25;5016435;28;20483;-90
2022/07/26 06:01:12;;;;;;;24.23;17.00;;;;;;;24.17;51.02;100753.75;5031922;28;20037;-88
2022/07/26 06:03:38;;;;;;;25.33;17.38;;;;;;;24.34;50.88;100730.06;5029995;28;20060;-88
2022/07/26 06:06:03;;;;;;;21.50;17.20;;;;;;;24.41;51.85;100752.22;5031971;28;20064;-85
2022/07/26 06:08:29;;;;;;;21.83;18.25;;;;;;;24.59;52.22;100745.00;5035770;28;20064;-86
2022/07/26 06:10:55;;;;;;;23.20;18.13;;;;;;;24.56;52.64;100747.94;5031047;28;20029;-85
2022/07/26 06:13:20;;;;;;;23.60;18.40;;;;;;;24.76;52.55;100764.34;5031244;28;20465;-88
2022/07/26 06:15:46;;;;;;;26.02;18.15;;;;;;;24.81;52.29;100760.22;5032811;28;20033;-89
2022/07/26 06:18:11;;;;;;;26.08;18.48;;;;;;;24.82;52.37;100769.81;4995525;28;20518;-88
2022/07/26 06:20:38;;;;;;;27.65;19.77;;;;;;;25.06;51.74;100769.03;5025300;28;20029;-83
2022/07/26 06:23:04;;;;;;;27.08;20.42;;;;;;;24.81;52.60;100772.63;5029736;28;20017;-83
2022/07/26 06:25:29;;;;;;;25.52;20.02;;;;;;;25.11;52.34;100760.59;5031161;28;20049;-83
2022/07/26 06:27:55;;;;;;;22.05;19.58;;;;;;;25.07;52.59;100764.56;5049623;28;20039;-86
2022/07/26 06:30:21;;;;;;;24.48;19.80;;;;;;;25.21;51.83;100752.50;5040738;28;20033;-89
2022/07/26 06:32:46;;;;;;;25.77;21.13;;;;;;;25.17;52.30;100750.19;5040427;28;20040;-88
2022/07/26 06:35:12;;;;;;;28.05;20.73;;;;;;;25.26;51.96;100760.75;5034203;28;20025;-89
2022/07/26 06:37:38;;;;;;;23.55;20.10;;;;;;;25.24;51.73;100758.28;5015650;28;20064;-91
2022/07/26 06:40:04;;;;;;;24.80;19.88;;;;;;;24.97;52.75;100750.63;5011430;28;20079;-89
2022/07/26 06:42:31;;;;;;;25.77;19.73;;;;;;;25.23;52.40;100756.63;5013384;28;20029;-90
2022/07/26 06:44:57;;;;;;;25.92;19.15;;;;;;;25.48;51.74;100759.25;5013940;28;20036;-90
2022/07/26 06:47:23;;;;;;;24.95;19.10;;;;;;;25.55;51.19;100762.84;5016627;28;20036;-92
2022/07/26 06:49:49;;;;;;;24.73;19.30;;;;;;;25.69;50.72;100752.41;5018251;28;20115;-88
2022/07/26 06:52:14;;;;;;;25.52;19.23;;;;;;;25.70;51.19;100747.97;5017616;28;20036;-92
2022/07/26 06:54:40;;;;;;;22.60;18.77;;;;;;;25.79;50.79;100749.59;5027280;28;20826;-82
2022/07/26 06:57:05;;;;;;;22.27;18.70;;;;;;;25.98;50.57;100746.53;5018521;28;20028;-86
2022/07/26 06:59:31;;;;;;;25.45;20.05;;;;;;;26.07;50.21;100744.69;5050829;28;20467;-88
2022/07/26 07:01:57;;;;;;;23.92;19.23;;;;;;;26.31;49.51;100741.06;5047765;28;20036;-89
2022/07/26 07:04:23;;;;;;;24.02;18.85;;;;;;;26.54;49.13;100751.72;5025663;28;20056;-89
2022/07/26 07:06:48;;;;;;;28.25;20.88;;;;;;;26.62;48.49;100740.22;5025554;28;20072;-90
2022/07/26 07:09:14;;;;;;;23.25;19.55;;;;;;;26.90;47.99;100730.72;5014986;28;20199;-88
2022/07/26 07:11:39;;;;;;;22.98;19.08;;;;;;;26.95;47.85;100739.00;5018233;28;20430;-89
2022/07/26 07:14:05;;;;;;;21.35;18.73;;;;;;;27.10;47.65;100734.56;5002796;28;20482;-90
2022/07/26 07:16:30;;;;;;;21.80;18.02;;;;;;;27.30;46.91;100736.72;5045333;28;20029;-85
2022/07/26 07:18:56;;;;;;;22.48;18.75;;;;;;;27.26;47.36;100730.13;5048686;28;20119;-85
2022/07/26 07:21:21;;;;;;;23.13;18.15;;;;;;;27.36;47.60;100736.00;5011991;28;20149;-89
2022/07/26 07:23:47;;;;;;;20.85;18.27;;;;;;;27.59;47.14;100728.75;5020594;28;20029;-92
2022/07/26 07:26:12;;;;;;;22.75;19.05;;;;;;;27.63;46.77;100738.03;4993141;28;20510;-82
2022/07/26 07:28:38;;;;;;;25.10;17.95;;;;;;;27.61;46.59;100729.38;5047637;28;20532;-88
2022/07/26 07:31:04;;;;;;;21.23;17.33;;;;;;;27.88;46.23;100727.94;5033209;28;20490;-84
2022/07/26 07:33:30;;;;;;;26.70;17.67;;;;;;;27.96;45.01;100737.66;5033407;28;20029;-83
2022/07/26 07:35:55;;;;;;;28.23;23.90;;;;;;;28.06;45.51;100735.53;5008742;28;20045;-86
2022/07/26 07:38:21;;;;;;;20.90;17.75;;;;;;;28.27;43.89;100724.94;5001479;28;20025;-89
2022/07/26 07:40:46;;;;;;;21.38;16.90;;;;;;;28.21;44.39;100725.66;5012078;28;20164;-91
2022/07/26 07:43:12;;;;;;;20.00;16.67;;;;;;;28.29;44.61;100720.28;5029957;28;20486;-90
2022/07/26 07:45:37;;;;;;;19.90;16.67;;;;;;;28.67;43.79;100720.03;5013006;28;20022;-89
2022/07/26 07:48:03;;;;;;;19.80;16.83;;;;;;;28.72;43.38;100722.16;5012685;28;20029;-83
2022/07/26 07:50:29;;;;;;;19.83;17.00;;;;;;;28.65;43.73;100716.75;5028386;28;20094;-80
2022/07/26 07:52:54;;;;;;;22.38;17.15;;;;;;;28.88;43.14;100721.03;5027987;28;20526;-89
2022/07/26 07:55:20;;;;;;;21.40;16.35;;;;;;;28.95;41.86;100693.47;4995335;28;20486;-82
2022/07/26 07:57:45;;;;;;;19.88;16.52;;;;;;;29.16;41.90;100716.59;5029226;28;20048;-84
2022/07/26 08:00:14;;;;;;;37.63;31.83;;;;;;;29.36;41.78;100717.53;5029276;28;20067;-84
2022/07/26 08:02:40;;;;;;;23.90;16.55;;;;;;;29.47;41.33;100697.50;5028733;28;20064;-83
2022/07/26 08:05:08;;;;;;;17.50;15.60;;;;;;;29.62;40.91;100716.09;5010129;28;20417;-86
2022/07/26 08:07:33;;;;;;;29.38;23.10;;;;;;;29.68;40.68;100707.28;5008733;28;20530;-84
2022/07/26 08:09:59;;;;;;;26.83;21.90;;;;;;;29.92;39.97;100703.28;5006908;28;20179;-89
2022/07/26 08:12:24;;;;;;;22.35;17.10;;;;;;;29.92;41.45;100703.28;5030180;28;20041;-87
2022/07/26 08:14:50;;;;;;;22.40;16.90;;;;;;;30.00;40.34;100705.78;5029719;28;20053;-93
2022/07/26 08:17:15;;;;;;;18.85;16.25;;;;;;;30.19;39.03;100705.06;5013909;28;20033;-88
2022/07/26 08:19:41;;;;;;;36.63;29.17;;;;;;;30.31;39.49;100713.28;5023039;28;20146;-87
2022/07/26 08:22:07;;;;;;;18.10;15.88;;;;;;;30.09;39.74;100709.09;5012181;28;20495;-87
2022/07/26 08:24:33;;;;;;;20.30;15.98;;;;;;;30.43;38.92;100722.34;5015803;28;20029;-85
2022/07/26 08:26:58;;;;;;;21.17;15.88;;;;;;;30.47;39.07;100712.91;5024557;28;20036;-85
2022/07/26 08:29:24;;;;;;;17.70;15.80;;;;;;;30.79;38.15;100715.84;5018162;28;20091;-89
2022/07/26 08:31:51;;;;;;;18.67;15.50;;;;;;;30.91;37.98;100708.84;5036205;28;20056;-83
2022/07/26 08:34:17;;;;;;;16.88;15.07;;;;;;;31.02;37.88;100708.22;5031925;28;20044;-81
2022/07/26 08:36:42;;;;;;;20.85;15.73;;;;;;;31.15;37.28;100703.91;5031926;28;20032;-82
2022/07/26 08:39:08;;;;;;;21.70;16.05;;;;;;;31.01;37.26;100697.75;5049115;28;20391;-80
2022/07/26 08:41:34;;;;;;;19.85;16.15;;;;;;;31.29;36.37;100694.88;5049645;28;20472;-82
2022/07/26 08:44:06;;;;;;;20.80;18.25;;;;;;;31.34;36.50;100695.88;5048546;28;20029;-85
2022/07/26 08:46:34;;;;;;;18.88;15.48;;;;;;;31.56;35.60;100691.09;5047978;28;20044;-87
2022/07/26 08:48:59;;;;;;;19.20;15.43;;;;;;;31.40;35.23;100679.00;5035843;28;20029;-84
2022/07/26 08:51:25;;;;;;;17.52;14.77;;;;;;;31.38;34.03;100693.63;5012940;28;20427;-87
2022/07/26 08:53:53;;;;;;;20.90;18.70;;;;;;;31.77;33.76;100684.66;5024828;28;20098;-85
2022/07/26 08:56:18;;;;;;;16.55;14.75;;;;;;;32.16;33.58;100697.03;5007906;28;20136;-86
2022/07/26 08:58:44;;;;;;;24.30;15.27;;;;;;;31.91;34.03;100688.09;5028331;28;20478;-92
2022/07/26 09:01:13;;;;;;;16.50;14.75;;;;;;;31.90;34.29;100691.81;4996022;28;20036;-91
2022/07/26 09:03:39;;;;;;;17.40;15.50;;;;;;;32.11;33.69;100683.44;5013329;28;20029;-86
2022/07/26 09:06:18;;;;;;;16.83;14.98;;;;;;;32.23;33.74;100689.75;5003267;28;20033;-83
2022/07/26 09:08:45;;;;;;;17.00;14.02;;;;;;;32.45;32.58;100686.78;5027944;28;20412;-86
2022/07/26 09:11:23;;;;;;;16.77;13.15;;;;;;;32.88;31.52;100691.41;5031767;28;20036;-87
2022/07/26 09:13:50;;;;;;;16.33;13.98;;;;;;;32.98;32.03;100686.38;5031971;28;20034;-86
2022/07/26 09:16:15;;;;;;;17.80;13.98;;;;;;;32.99;32.09;100674.59;5032037;28;20513;-87
2022/07/26 09:18:41;;;;;;;17.38;14.05;;;;;;;33.13;31.50;100654.66;5016441;28;20486;-87
2022/07/26 09:21:06;;;;;;;15.82;14.20;;;;;;;33.26;31.20;100675.97;5031968;28;20025;-88
2022/07/26 09:23:38;;;;;;;17.00;14.35;;;;;;;33.01;32.19;100664.47;5045819;28;20556;-84
2022/07/26 09:26:04;;;;;;;17.58;14.07;;;;;;;33.47;31.81;100677.41;5037577;28;20025;-84
2022/07/26 09:28:29;;;;;;;15.98;14.20;;;;;;;33.54;30.95;100667.44;5050135;28;20032;-85
2022/07/26 09:31:00;;;;;;;17.10;14.13;;;;;;;33.72;32.43;100663.88;5051205;28;20029;-88
2022/07/26 09:33:26;;;;;;;16.40;14.73;;;;;;;33.80;31.00;100666.25;5034129;28;20482;-86
2022/07/26 09:36:03;;;;;;;16.50;14.25;;;;;;;34.07;30.85;100666.75;5035116;28;20078;-88
2022/07/26 09:39:01;;;;;;;15.77;14.10;;;;;;;33.98;30.98;100660.06;5036552;28;20029;-91
2022/07/26 09:41:31;;;;;;;18.63;14.85;;;;;;;33.92;30.85;100653.75;5035223;28;20041;-91
2022/07/26 09:43:59;;;;;;;20.35;14.70;;;;;;;34.07;30.03;100657.88;5017391;28;20033;-90
2022/07/26 09:46:25;;;;;;;16.98;15.30;;;;;;;33.94;30.05;100618.66;5031452;28;20060;-88
2022/07/26 09:48:51;;;;;;;17.27;14.57;;;;;;;34.11;29.78;100642.94;5013637;28;20075;-88
2022/07/26 09:51:52;;;;;;;20.42;14.25;;;;;;;34.40;29.61;100650.16;5013715;28;20022;-86
2022/07/26 09:54:31;;;;;;;16.83;15.13;;;;;;;34.41;30.48;100637.53;4994064;28;20550;-90
2022/07/26 09:56:57;;;;;;;16.63;14.90;;;;;;;34.48;30.17;100636.41;4991791;28;20038;-88
2022/07/26 09:59:23;;;;;;;16.45;14.20;;;;;;;34.92;29.63;100630.72;5011879;28;20450;-91
2022/07/26 10:01:50;;;;;;;16.58;14.85;;;;;;;35.03;28.60;100644.16;4979226;28;20041;-87
2022/07/26 10:04:15;;;;;;;15.55;14.05;;;;;;;34.79;29.30;100637.91;4995328;28;20022;-86
2022/07/26 10:06:41;;;;;;;17.23;15.52;;;;;;;35.00;28.96;100636.53;4995506;28;20033;-89
2022/07/26 10:09:07;;;;;;;15.82;14.18;;;;;;;34.66;28.47;100610.47;4996052;28;20038;-86
2022/07/26 10:12:01;;;;;;;15.75;14.25;;;;;;;34.60;28.92;100631.03;5011325;28;20554;-85
2022/07/26 10:14:32;;;;;;;15.52;13.93;;;;;;;35.29;27.51;100626.66;5007332;28;20064;-83
2022/07/26 10:16:58;;;;;;;;;;;;;;;35.67;26.41;100616.41;5014029;28;20022;-88
2022/07/26 10:19:39;;;;;;;18.25;13.40;;;;;;;35.69;26.10;100608.88;5010763;28;20056;-88
2022/07/26 10:22:24;;;;;;;14.27;12.77;;;;;;;35.95;26.14;100612.91;5013337;28;20042;-93
2022/07/26 10:24:53;;;;;;;16.33;13.63;;;;;;;36.07;25.15;100609.06;5012705;28;20037;-90
2022/07/26 10:27:38;;;;;;;15.65;13.95;;;;;;;35.94;24.81;100604.00;5010950;28;20025;-83
2022/07/26 10:30:18;;;;;;;14.30;12.80;;;;;;;35.95;25.14;100620.97;4994387;28;20032;-85
2022/07/26 10:33:11;;;;;;;18.90;14.70;;;;;;;35.90;24.79;100586.72;5011234;28;20026;-82
2022/07/26 10:35:39;;;;;;;15.80;13.45;;;;;;;36.13;24.88;100608.09;5010298;28;21224;-91
2022/07/26 10:38:05;;;;;;;15.23;13.63;;;;;;;36.48;23.95;100607.91;5010418;28;20038;-92
2022/07/26 10:40:31;;;;;;;14.35;12.95;;;;;;;36.42;24.16;100608.06;4994401;28;20037;-91
2022/07/26 10:43:13;;;;;;;14.10;12.77;;;;;;;36.43;24.04;100604.28;4995515;28;20034;-94
2022/07/26 10:45:39;;;;;;;14.23;12.93;;;;;;;36.64;23.95;100590.06;5023171;28;20482;-91
2022/07/26 10:48:15;;;;;;;14.63;13.23;;;;;;;36.75;23.96;100597.22;5006722;28;20057;-81
2022/07/26 10:50:43;;;;;;;14.63;13.13;;;;;;;36.65;23.83;100590.88;5029888;28;20037;-85
2022/07/26 10:53:10;;;;;;;14.85;13.38;;;;;;;36.60;23.30;100583.53;5020005;28;20060;-85
2022/07/26 10:55:45;;;;;;;14.02;12.65;;;;;;;36.86;23.53;100586.59;5031829;28;20392;-85
2022/07/26 10:58:11;;;;;;;15.77;13.18;;;;;;;36.73;23.62;100582.38;5049973;28;20024;-88
2022/07/26 11:00:36;;;;;;;15.13;13.50;;;;;;;36.68;23.73;100558.88;5019026;28;20411;-84
2022/07/26 11:03:02;;;;;;;14.52;13.02;;;;;;;36.53;23.98;100568.59;5013172;28;20123;-85
2022/07/26 11:05:30;;;;;;;17.52;13.07;;;;;;;36.70;24.12;100583.69;5013110;28;20029;-84
2022/07/26 11:08:09;;;;;;;15.05;13.00;;;;;;;36.57;24.00;100567.03;5029200;28;20035;-89
2022/07/26 11:10:34;;;;;;;14.52;13.05;;;;;;;36.98;23.69;100573.84;5045442;28;20067;-85
2022/07/26 11:13:10;;;;;;;14.68;13.13;;;;;;;37.41;23.48;100572.19;5034521;28;20025;-84
2022/07/26 11:15:37;;;;;;;14.35;12.85;;;;;;;37.14;22.87;100572.94;5029154;28;20029;-87
2022/07/26 11:18:09;;;;;;;14.43;12.95;;;;;;;37.38;22.79;100551.94;4996666;28;20025;-87
2022/07/26 11:20:35;;;;;;;18.58;13.07;;;;;;;37.63;21.83;100564.03;5034050;28;20502;-92
2022/07/26 11:23:01;;;;;;;13.73;12.32;;;;;;;37.82;22.12;100552.66;5010419;28;20025;-91
2022/07/26 11:25:27;;;;;;;14.32;12.65;;;;;;;37.76;20.77;100558.25;5049815;28;20056;-85
2022/07/26 11:28:04;;;;;;;13.30;11.98;;;;;;;37.82;20.69;100536.44;5048557;28;20078;-85
2022/07/26 11:30:29;;;;;;;12.73;11.52;;;;;;;38.05;20.29;100550.66;5023861;28;20520;-85
2022/07/26 11:32:57;;;;;;;15.70;12.18;;;;;;;37.78;18.63;100550.72;5049327;28;20506;-85
2022/07/26 11:35:24;;;;;;;12.90;11.70;;;;;;;37.86;20.04;100552.97;4997366;28;20025;-87
2022/07/26 11:37:57;;;;;;;13.52;12.13;;;;;;;37.71;20.59;100550.91;5034331;28;20025;-83
2022/07/26 11:40:44;;;;;;;13.32;12.10;;;;;;;37.54;20.87;100550.19;5049269;28;20418;-86
2022/07/26 11:43:10;;;;;;;12.18;10.93;;;;;;;37.55;18.91;100546.41;5048469;28;20040;-86
2022/07/26 11:45:35;;;;;;;11.93;10.73;;;;;;;37.49;18.38;100531.28;5031588;28;20028;-88
2022/07/26 11:48:03;;;;;;;12.35;11.13;;;;;;;37.78;18.28;100532.66;5048192;28;20029;-89
2022/07/26 11:50:28;;;;;;;13.30;12.02;;;;;;;37.86;19.03;100524.09;5032251;28;20040;-83
2022/07/26 11:52:54;;;;;;;12.45;11.18;;;;;;;38.08;19.11;100529.38;5031780;28;20048;-83
2022/07/26 11:55:26;;;;;;;12.35;11.15;;;;;;;38.18;19.00;100531.31;5048475;28;20060;-85
2022/07/26 11:57:52;;;;;;;12.38;11.18;;;;;;;37.83;18.63;100511.06;5024766;28;20029;-85
2022/07/26 12:00:18;;;;;;;12.30;11.00;;;;;;;37.87;18.14;100504.09;4996352;28;20028;-82
2022/07/26 12:02:43;;;;;;;11.88;10.70;;;;;;;38.04;18.41;100514.75;5028512;28;20072;-86
2022/07/26 12:05:20;;;;;;;11.50;10.43;;;;;;;37.86;18.10;100518.69;5040869;28;20040;-83
2022/07/26 12:08:11;;;;;;;12.15;10.68;;;;;;;38.18;18.27;100518.63;5048778;28;20025;-85
2022/07/26 12:10:37;;;;;;;12.75;10.60;;;;;;;38.31;18.35;100517.38;5046327;28;20402;-89
2022/07/26 12:13:07;;;;;;;13.60;9.73;;;;;;;38.17;16.53;100516.19;5050044;28;20025;-87
2022/07/26 12:15:49;;;;;;;10.88;9.90;;;;;;;37.97;16.73;100508.78;5016250;28;20029;-87
2022/07/26 12:18:25;;;;;;;14.73;10.27;;;;;;;38.16;16.86;100509.16;5033662;28;20490;-87
2022/07/26 12:21:01;;;;;;;10.88;9.68;;;;;;;38.21;16.78;100511.06;5012720;28;20052;-86
2022/07/26 12:23:48;;;;;;;11.05;9.95;;;;;;;38.26;17.00;100506.56;5033454;28;20094;-92
2022/07/26 12:26:26;;;;;;;11.90;10.35;;;;;;;38.16;16.98;100488.38;5028886;28;20116;-87
2022/07/26 12:28:52;;;;;;;12.32;10.82;;;;;;;37.99;17.79;100495.00;5048560;28;20040;-83
2022/07/26 12:31:28;;;;;;;12.27;11.02;;;;;;;38.13;17.67;100499.69;5048275;28;20469;-93
2022/07/26 12:33:53;;;;;;;12.25;9.82;;;;;;;38.39;17.94;100497.97;5032023;28;20135;-89
2022/07/26 12:36:19;;;;;;;12.98;11.68;;;;;;;38.02;17.84;100480.97;5028141;28;20048;-85
2022/07/26 12:38:45;;;;;;;12.27;10.98;;;;;;;37.76;18.23;100488.91;5028271;28;20021;-84
2022/07/26 12:41:10;;;;;;;12.00;10.77;;;;;;;38.21;18.07;100490.28;5012520;28;20499;-85
2022/07/26 12:43:39;;;;;;;12.60;11.43;;;;;;;38.34;17.88;100478.22;5029397;28;20095;-85
2022/07/26 12:46:05;;;;;;;11.68;10.57;;;;;;;38.15;17.63;100483.22;5026781;28;20044;-87
2022/07/26 12:48:30;;;;;;;11.95;10.70;;;;;;;38.03;17.87;100478.00;5045325;28;20556;-84
2022/07/26 12:50:56;;;;;;;12.82;11.43;;;;;;;38.18;17.75;100478.13;5015846;28;20154;-87
2022/07/26 12:53:22;;;;;;;17.98;16.27;;;;;;;38.08;18.37;100471.84;5015297;28;20042;-87
2022/07/26 12:55:47;;;;;;;12.35;11.10;;;;;;;38.19;18.05;100484.31;5016192;28;20040;-85
2022/07/26 12:58:13;;;;;;;12.18;10.95;;;;;;;38.03;18.36;100471.78;5016342;28;20033;-82
2022/07/26 13:00:38;;;;;;;11.52;10.45;;;;;;;38.09;18.13;100476.16;5032727;28;20065;-85
2022/07/26 13:03:04;;;;;;;12.55;11.25;;;;;;;38.12;18.38;100476.44;5016271;28;20181;-88
2022/07/26 13:05:30;;;;;;;12.60;11.32;;;;;;;38.03;18.54;100469.91;5016206;28;20032;-88
2022/07/26 13:07:56;;;;;;;13.23;11.93;;;;;;;37.83;18.75;100443.59;5033041;28;20494;-89
2022/07/26 13:10:22;;;;;;;15.27;10.93;;;;;;;37.94;19.06;100467.94;5016039;28;20037;-86
2022/07/26 13:12:47;;;;;;;12.25;10.95;;;;;;;37.93;18.85;100466.31;5032214;28;20052;-85
2022/07/26 13:15:13;;;;;;;15.82;11.23;;;;;;;37.91;19.32;100469.28;5032435;28;20029;-88
2022/07/26 13:17:38;;;;;;;12.25;11.05;;;;;;;37.96;19.16;100457.72;4999681;28;20502;-88
2022/07/26 13:20:04;;;;;;;12.82;11.52;;;;;;;37.86;19.47;100461.97;5032367;28;20034;-87
2022/07/26 13:22:30;;;;;;;16.88;10.88;;;;;;;37.53;19.27;100436.03;5031646;28;20079;-84
2022/07/26 13:24:55;;;;;;;13.45;10.98;;;;;;;37.39;19.41;100432.16;5032179;28;20033;-86
2022/07/26 13:27:21;;;;;;;12.23;11.02;;;;;;;37.40;18.95;100441.06;5032136;28;20560;-86
2022/07/26 13:29:46;;;;;;;15.23;11.20;;;;;;;37.24;19.64;100419.31;5015888;28;20107;-86
2022/07/26 13:32:12;;;;;;;12.95;11.15;;;;;;;37.30;19.45;100442.59;5031552;28;20530;-86
2022/07/26 13:34:37;;;;;;;13.90;12.45;;;;;;;37.28;19.34;100450.13;5037688;28;20034;-90
2022/07/26 13:37:03;;;;;;;14.57;11.48;;;;;;;37.19;19.88;100440.84;5039852;28;20025;-89
2022/07/26 13:39:28;;;;;;;12.70;11.43;;;;;;;37.11;20.00;100438.63;5042566;28;20073;-89
2022/07/26 13:41:54;;;;;;;12.98;11.45;;;;;;;37.26;19.71;100446.03;5002099;28;20494;-89
2022/07/26 13:44:21;;;;;;;12.82;11.57;;;;;;;37.17;19.34;100442.16;5037402;28;20041;-86
2022/07/26 13:46:47;;;;;;;12.70;11.10;;;;;;;37.03;19.39;100430.97;5012813;28;20105;-88
2022/07/26 13:49:12;;;;;;;12.65;11.45;;;;;;;37.05;19.92;100436.91;5040843;28;20110;-87
2022/07/26 13:51:56;;;;;;;11.93;10.77;;;;;;;36.98;20.17;100428.25;5050849;28;20025;-88
2022/07/26 13:54:31;;;;;;;14.25;11.50;;;;;;;36.86;19.96;100409.50;5051080;28;20080;-88
2022/07/26 13:56:58;;;;;;;12.27;11.07;;;;;;;36.92;19.99;100424.66;5051213;28;20028;-83
2022/07/26 13:59:24;;;;;;;12.98;11.18;;;;;;;36.94;20.07;100424.41;5019472;28;20022;-83
2022/07/26 14:01:50;;;;;;;12.18;10.80;;;;;;;36.87;19.96;100413.00;4995509;28;20418;-82
2022/07/26 14:04:15;;;;;;;12.25;11.00;;;;;;;36.95;19.80;100415.25;5014868;28;20499;-85
2022/07/26 14:06:41;;;;;;;13.70;10.95;;;;;;;37.05;19.37;100428.84;5048778;28;20522;-91
2022/07/26 14:09:08;;;;;;;11.73;10.38;;;;;;;37.00;19.69;100420.72;5014794;28;20053;-92
2022/07/26 14:11:34;;;;;;;12.40;11.18;;;;;;;36.93;19.31;100425.47;4998676;28;20033;-85
